Cynthiana, IN (47612)

6:50 PM CDT on September 02, 2015 (GMT -0500)
SR 165 | | Change Station
CLOSE
Current Station
Personal Weather Station
Location: Wadesville, IN
Elevation: 456 ft
Nearby Weather Stations

Elev 456 ft 38.11 °N, 87.79 °W | Updated 21 seconds ago

Clear
Clear
85.3 °F
Feels Like 90 °F
N
0.0
Wind Variable Wind from West
Gusts 0.0 mph

Today
High -- | Low -- °F
--% Chance of Precip.
Yesterday
High -- | Low -- °F
Precip. -- in
6:21 AM 7:19 PM
Waning Gibbous, 76% visible
Pressure 29.99 in
Visibility 9.0 miles
Clouds Clear
Heat Index 90 °F
Dew Point 70 °F
Humidity 61%
Rainfall 0.00 in
Snow Depth Not available.
UV 1 out of 12
Pollen 10.50 out of 12
Air Quality Not available.
Flu Activity Not available.
METAR KEVV 022254Z 00000KT 9SM CLR 32/17 A3000 RMK AO2 SLP155 T03220167
Pressure 29.99 in
Visibility 9.0 miles
Clouds Clear
Heat Index 90 °F
Dew Point 70 °F
Humidity 61%
Rainfall 0.00 in
Snow Depth Not available.
UV 1 out of 12
Pollen 10.50 out of 12
Air Quality Not available.
Flu Activity Not available.
METAR KEVV 022254Z 00000KT 9SM CLR 32/17 A3000 RMK AO2 SLP155 T03220167

10-Day Weather Forecast

×

Almanac

Astronomy

Sep. 02, 2015 Rise Set
Actual Time
Civil Twilight
Nautical Twilight
Astronomical Twilight
Moon
Length of Visible Light
Length of Day
Tomorrow will be .
, % of the Moon is Illuminated

Today's Extremes

State Highs State Lows

Community

WunderPhotos

Upload Photos

1,851,841 photos uploaded!

WunderBlogs® & News

Nearby

Air Quality

  Air Quality AQ Index Pollutant
Not available.

Snow Depth

Station Depth Elevation

Earthquake Activity

City Distance Mag. Time & Date
Minimum magnitude displayed is 2.5.

Coastal Water Temperatures

Place Temperature

Stations

Nearby Weather Stations

Station Location Temp. Windchill Dew Point Humidity Wind Precip. Elev Updated Type